sensor_id;sensor_type;location;lat;lon;timestamp;temperature;humidity
75010;DHT22;63564;46.840;18.336;2023-03-01T00:01:16;3.02;83.16
75010;DHT22;63564;46.840;18.336;2023-03-01T00:04:17;3.13;82.62
75010;DHT22;63564;46.840;18.336;2023-03-01T00:07:17;3.31;81.65
75010;DHT22;63564;46.840;18.336;2023-03-01T00:10:17;3.33;82.02
75010;DHT22;63564;46.840;18.336;2023-03-01T00:13:18;3.33;81.91
75010;DHT22;63564;46.840;18.336;2023-03-01T00:16:21;3.35;82.00
75010;DHT22;63564;46.840;18.336;2023-03-01T00:19:22;3.28;81.68
75010;DHT22;63564;46.840;18.336;2023-03-01T00:22:23;3.09;81.94
75010;DHT22;63564;46.840;18.336;2023-03-01T00:25:23;3.12;82.10
75010;DHT22;63564;46.840;18.336;2023-03-01T00:28:24;3.08;82.32
75010;DHT22;63564;46.840;18.336;2023-03-01T00:31:27;2.98;82.11
75010;DHT22;63564;46.840;18.336;2023-03-01T00:34:29;2.97;82.24
75010;DHT22;63564;46.840;18.336;2023-03-01T00:37:29;2.97;82.78
75010;DHT22;63564;46.840;18.336;2023-03-01T00:40:32;3.00;82.72
75010;DHT22;63564;46.840;18.336;2023-03-01T00:43:32;3.11;82.03
75010;DHT22;63564;46.840;18.336;2023-03-01T00:46:36;2.97;82.64
75010;DHT22;63564;46.840;18.336;2023-03-01T00:49:37;3.01;82.44
75010;DHT22;63564;46.840;18.336;2023-03-01T00:52:37;2.91;82.59
75010;DHT22;63564;46.840;18.336;2023-03-01T00:55:38;2.95;82.45
75010;DHT22;63564;46.840;18.336;2023-03-01T00:58:38;3.00;81.91
75010;DHT22;63564;46.840;18.336;2023-03-01T01:01:39;3.01;82.11
75010;DHT22;63564;46.840;18.336;2023-03-01T01:04:39;3.00;82.56
75010;DHT22;63564;46.840;18.336;2023-03-01T01:07:40;2.91;82.31
75010;DHT22;63564;46.840;18.336;2023-03-01T01:10:43;2.87;83.03
75010;DHT22;63564;46.840;18.336;2023-03-01T01:13:45;2.88;83.16
75010;DHT22;63564;46.840;18.336;2023-03-01T01:16:46;2.83;83.11
75010;DHT22;63564;46.840;18.336;2023-03-01T01:19:47;2.83;83.13
75010;DHT22;63564;46.840;18.336;2023-03-01T01:22:47;3.13;82.70
75010;DHT22;63564;46.840;18.336;2023-03-01T01:25:48;3.18;82.47
75010;DHT22;63564;46.840;18.336;2023-03-01T01:28:49;3.12;83.30
75010;DHT22;63564;46.840;18.336;2023-03-01T01:31:49;3.16;83.39
75010;DHT22;63564;46.840;18.336;2023-03-01T01:34:50;2.95;83.92
75010;DHT22;63564;46.840;18.336;2023-03-01T01:37:50;2.93;84.48
75010;DHT22;63564;46.840;18.336;2023-03-01T01:40:51;2.94;84.55
75010;DHT22;63564;46.840;18.336;2023-03-01T01:47:16;2.88;84.26
75010;DHT22;63564;46.840;18.336;2023-03-01T01:50:19;2.88;84.33
75010;DHT22;63564;46.840;18.336;2023-03-01T01:53:19;2.91;84.02
75010;DHT22;63564;46.840;18.336;2023-03-01T01:56:23;2.93;84.54
75010;DHT22;63564;46.840;18.336;2023-03-01T01:59:26;2.93;84.15
75010;DHT22;63564;46.840;18.336;2023-03-01T02:02:28;2.94;84.81
75010;DHT22;63564;46.840;18.336;2023-03-01T02:05:45;2.95;84.91
75010;DHT22;63564;46.840;18.336;2023-03-01T02:08:49;3.05;84.30
75010;DHT22;63564;46.840;18.336;2023-03-01T02:11:51;3.00;84.18
75010;DHT22;63564;46.840;18.336;2023-03-01T02:14:52;2.97;84.53
75010;DHT22;63564;46.840;18.336;2023-03-01T02:17:53;3.02;84.97
75010;DHT22;63564;46.840;18.336;2023-03-01T02:21:20;2.98;84.19
75010;DHT22;63564;46.840;18.336;2023-03-01T02:30:53;2.98;85.38
75010;DHT22;63564;46.840;18.336;2023-03-01T02:34:15;3.01;85.53
75010;DHT22;63564;46.840;18.336;2023-03-01T02:37:17;2.95;85.96
75010;DHT22;63564;46.840;18.336;2023-03-01T02:40:24;2.94;86.02
75010;DHT22;63564;46.840;18.336;2023-03-01T02:43:27;2.94;86.36
75010;DHT22;63564;46.840;18.336;2023-03-01T02:46:29;2.97;86.41
75010;DHT22;63564;46.840;18.336;2023-03-01T02:49:32;2.90;86.72
75010;DHT22;63564;46.840;18.336;2023-03-01T02:56:01;2.88;86.58
75010;DHT22;63564;46.840;18.336;2023-03-01T02:59:02;2.95;86.35
75010;DHT22;63564;46.840;18.336;2023-03-01T03:02:03;3.16;85.89
75010;DHT22;63564;46.840;18.336;2023-03-01T03:05:19;3.23;85.71
75010;DHT22;63564;46.840;18.336;2023-03-01T03:08:20;3.02;86.13
75010;DHT22;63564;46.840;18.336;2023-03-01T03:11:23;3.09;85.90
75010;DHT22;63564;46.840;18.336;2023-03-01T03:14:24;3.29;85.06
75010;DHT22;63564;46.840;18.336;2023-03-01T03:17:24;3.12;85.40
75010;DHT22;63564;46.840;18.336;2023-03-01T03:20:27;3.07;86.05
75010;DHT22;63564;46.840;18.336;2023-03-01T03:23:28;3.11;85.85
75010;DHT22;63564;46.840;18.336;2023-03-01T03:26:29;3.05;85.53
75010;DHT22;63564;46.840;18.336;2023-03-01T03:29:30;3.12;85.56
75010;DHT22;63564;46.840;18.336;2023-03-01T03:32:31;3.18;85.34
75010;DHT22;63564;46.840;18.336;2023-03-01T03:35:34;3.09;85.80
75010;DHT22;63564;46.840;18.336;2023-03-01T03:38:34;3.15;85.53
75010;DHT22;63564;46.840;18.336;2023-03-01T03:41:35;3.09;85.81
75010;DHT22;63564;46.840;18.336;2023-03-01T03:44:35;3.19;85.11
75010;DHT22;63564;46.840;18.336;2023-03-01T03:47:36;3.28;84.54
75010;DHT22;63564;46.840;18.336;2023-03-01T03:50:38;3.19;84.74
75010;DHT22;63564;46.840;18.336;2023-03-01T03:53:39;3.25;85.16
75010;DHT22;63564;46.840;18.336;2023-03-01T03:56:40;3.25;84.90
75010;DHT22;63564;46.840;18.336;2023-03-01T03:59:40;3.31;84.77
75010;DHT22;63564;46.840;18.336;2023-03-01T04:02:42;3.31;85.70
75010;DHT22;63564;46.840;18.336;2023-03-01T04:05:42;3.28;85.60
75010;DHT22;63564;46.840;18.336;2023-03-01T04:08:43;3.35;84.91
75010;DHT22;63564;46.840;18.336;2023-03-01T04:11:43;3.16;85.92
75010;DHT22;63564;46.840;18.336;2023-03-01T04:14:43;3.07;86.55
75010;DHT22;63564;46.840;18.336;2023-03-01T04:17:46;3.23;85.78
75010;DHT22;63564;46.840;18.336;2023-03-01T04:20:47;3.05;86.58
75010;DHT22;63564;46.840;18.336;2023-03-01T04:23:48;3.13;85.94
75010;DHT22;63564;46.840;18.336;2023-03-01T04:26:48;3.09;86.63
75010;DHT22;63564;46.840;18.336;2023-03-01T04:29:48;3.05;87.00
75010;DHT22;63564;46.840;18.336;2023-03-01T04:32:49;3.07;87.19
75010;DHT22;63564;46.840;18.336;2023-03-01T04:35:50;3.02;87.37
75010;DHT22;63564;46.840;18.336;2023-03-01T04:38:51;3.07;87.55
75010;DHT22;63564;46.840;18.336;2023-03-01T04:41:52;3.05;87.35
75010;DHT22;63564;46.840;18.336;2023-03-01T04:44:52;3.07;87.60
75010;DHT22;63564;46.840;18.336;2023-03-01T04:47:53;3.01;87.21
75010;DHT22;63564;46.840;18.336;2023-03-01T04:50:54;3.00;88.19
75010;DHT22;63564;46.840;18.336;2023-03-01T04:53:54;3.11;87.92
75010;DHT22;63564;46.840;18.336;2023-03-01T04:56:55;3.09;87.72
75010;DHT22;63564;46.840;18.336;2023-03-01T04:59:55;3.01;88.33
75010;DHT22;63564;46.840;18.336;2023-03-01T05:02:57;3.00;88.62
75010;DHT22;63564;46.840;18.336;2023-03-01T05:05:59;3.02;88.53
75010;DHT22;63564;46.840;18.336;2023-03-01T05:08:59;2.98;88.71
75010;DHT22;63564;46.840;18.336;2023-03-01T05:12:00;3.07;88.41
75010;DHT22;63564;46.840;18.336;2023-03-01T05:15:00;3.02;88.66
75010;DHT22;63564;46.840;18.336;2023-03-01T05:18:01;3.01;88.68
75010;DHT22;63564;46.840;18.336;2023-03-01T05:21:07;2.95;88.77
75010;DHT22;63564;46.840;18.336;2023-03-01T05:24:08;2.94;88.70
75010;DHT22;63564;46.840;18.336;2023-03-01T05:27:11;2.97;88.49
75010;DHT22;63564;46.840;18.336;2023-03-01T05:30:12;3.05;88.31
75010;DHT22;63564;46.840;18.336;2023-03-01T05:33:15;3.01;88.20
75010;DHT22;63564;46.840;18.336;2023-03-01T05:36:16;2.97;88.49
75010;DHT22;63564;46.840;18.336;2023-03-01T05:39:22;3.01;88.55
75010;DHT22;63564;46.840;18.336;2023-03-01T05:42:23;3.12;88.28
75010;DHT22;63564;46.840;18.336;2023-03-01T05:45:25;3.05;88.03
75010;DHT22;63564;46.840;18.336;2023-03-01T05:48:26;3.08;88.38
75010;DHT22;63564;46.840;18.336;2023-03-01T05:51:26;3.01;88.50
75010;DHT22;63564;46.840;18.336;2023-03-01T05:54:27;3.08;88.81
75010;DHT22;63564;46.840;18.336;2023-03-01T05:57:28;3.04;88.51
75010;DHT22;63564;46.840;18.336;2023-03-01T06:00:30;3.05;88.48
75010;DHT22;63564;46.840;18.336;2023-03-01T06:03:30;2.94;88.95
75010;DHT22;63564;46.840;18.336;2023-03-01T06:06:34;2.98;88.94
75010;DHT22;63564;46.840;18.336;2023-03-01T06:09:35;3.04;89.04
75010;DHT22;63564;46.840;18.336;2023-03-01T06:12:37;3.00;89.61
75010;DHT22;63564;46.840;18.336;2023-03-01T06:15:37;3.00;89.23
75010;DHT22;63564;46.840;18.336;2023-03-01T06:18:38;3.00;89.14
75010;DHT22;63564;46.840;18.336;2023-03-01T06:21:39;3.05;89.32
75010;DHT22;63564;46.840;18.336;2023-03-01T06:24:39;3.15;89.13
75010;DHT22;63564;46.840;18.336;2023-03-01T06:27:40;3.18;89.18
75010;DHT22;63564;46.840;18.336;2023-03-01T06:30:40;3.15;88.95
75010;DHT22;63564;46.840;18.336;2023-03-01T06:33:41;3.18;89.25
75010;DHT22;63564;46.840;18.336;2023-03-01T06:36:41;3.19;88.82
75010;DHT22;63564;46.840;18.336;2023-03-01T06:39:42;3.28;88.58
75010;DHT22;63564;46.840;18.336;2023-03-01T06:42:47;3.32;88.22
75010;DHT22;63564;46.840;18.336;2023-03-01T06:45:49;3.33;88.06
75010;DHT22;63564;46.840;18.336;2023-03-01T06:48:49;3.44;87.96
75010;DHT22;63564;46.840;18.336;2023-03-01T06:51:50;3.46;88.32
75010;DHT22;63564;46.840;18.336;2023-03-01T06:54:50;3.46;87.35
75010;DHT22;63564;46.840;18.336;2023-03-01T06:57:55;3.46;87.62
75010;DHT22;63564;46.840;18.336;2023-03-01T07:00:56;3.55;87.39
75010;DHT22;63564;46.840;18.336;2023-03-01T07:03:57;3.56;86.82
75010;DHT22;63564;46.840;18.336;2023-03-01T07:06:57;3.64;86.87
75010;DHT22;63564;46.840;18.336;2023-03-01T07:09:58;3.62;86.72
75010;DHT22;63564;46.840;18.336;2023-03-01T07:12:58;3.60;86.62
75010;DHT22;63564;46.840;18.336;2023-03-01T07:15:59;3.62;86.95
75010;DHT22;63564;46.840;18.336;2023-03-01T07:18:59;3.80;86.11
75010;DHT22;63564;46.840;18.336;2023-03-01T07:22:00;3.88;86.31
75010;DHT22;63564;46.840;18.336;2023-03-01T07:25:00;3.86;84.60
75010;DHT22;63564;46.840;18.336;2023-03-01T07:28:01;3.86;84.38
75010;DHT22;63564;46.840;18.336;2023-03-01T07:31:02;3.90;84.73
75010;DHT22;63564;46.840;18.336;2023-03-01T07:34:02;3.99;83.82
75010;DHT22;63564;46.840;18.336;2023-03-01T07:37:03;4.16;82.85
75010;DHT22;63564;46.840;18.336;2023-03-01T07:40:04;4.12;82.88
75010;DHT22;63564;46.840;18.336;2023-03-01T07:43:05;4.24;82.66
75010;DHT22;63564;46.840;18.336;2023-03-01T07:46:06;4.36;81.54
75010;DHT22;63564;46.840;18.336;2023-03-01T07:49:06;4.22;81.92
75010;DHT22;63564;46.840;18.336;2023-03-01T07:52:09;4.29;82.23
75010;DHT22;63564;46.840;18.336;2023-03-01T07:55:10;4.32;80.68
75010;DHT22;63564;46.840;18.336;2023-03-01T07:58:10;4.36;80.74
75010;DHT22;63564;46.840;18.336;2023-03-01T08:01:13;4.34;80.85
75010;DHT22;63564;46.840;18.336;2023-03-01T08:04:14;4.38;80.57
75010;DHT22;63564;46.840;18.336;2023-03-01T08:07:14;4.67;82.84
75010;DHT22;63564;46.840;18.336;2023-03-01T08:10:15;4.60;79.21
75010;DHT22;63564;46.840;18.336;2023-03-01T08:13:15;4.45;79.94
75010;DHT22;63564;46.840;18.336;2023-03-01T08:16:16;4.56;81.77
75010;DHT22;63564;46.840;18.336;2023-03-01T08:19:17;4.52;79.89
75010;DHT22;63564;46.840;18.336;2023-03-01T08:22:17;4.62;79.03
75010;DHT22;63564;46.840;18.336;2023-03-01T08:25:18;4.53;79.15
75010;DHT22;63564;46.840;18.336;2023-03-01T08:28:18;4.62;78.56
75010;DHT22;63564;46.840;18.336;2023-03-01T08:31:28;4.93;81.98
75010;DHT22;63564;46.840;18.336;2023-03-01T08:34:29;4.84;79.25
75010;DHT22;63564;46.840;18.336;2023-03-01T08:37:31;4.84;77.54
75010;DHT22;63564;46.840;18.336;2023-03-01T08:40:33;4.85;78.74
75010;DHT22;63564;46.840;18.336;2023-03-01T08:43:33;4.91;77.14
75010;DHT22;63564;46.840;18.336;2023-03-01T08:46:38;5.08;77.08
75010;DHT22;63564;46.840;18.336;2023-03-01T08:49:40;5.32;76.98
75010;DHT22;63564;46.840;18.336;2023-03-01T08:52:40;5.28;75.67
75010;DHT22;63564;46.840;18.336;2023-03-01T08:55:41;5.36;75.79
75010;DHT22;63564;46.840;18.336;2023-03-01T08:58:46;5.42;75.49
75010;DHT22;63564;46.840;18.336;2023-03-01T09:01:46;5.31;75.97
75010;DHT22;63564;46.840;18.336;2023-03-01T09:04:47;5.34;75.82
75010;DHT22;63564;46.840;18.336;2023-03-01T09:07:47;5.35;75.28
75010;DHT22;63564;46.840;18.336;2023-03-01T09:10:47;5.56;75.40
75010;DHT22;63564;46.840;18.336;2023-03-01T09:13:49;5.46;74.72
75010;DHT22;63564;46.840;18.336;2023-03-01T09:16:50;5.77;74.42
75010;DHT22;63564;46.840;18.336;2023-03-01T09:19:50;5.80;74.23
75010;DHT22;63564;46.840;18.336;2023-03-01T09:22:51;6.20;73.04
75010;DHT22;63564;46.840;18.336;2023-03-01T09:25:52;6.28;73.20
75010;DHT22;63564;46.840;18.336;2023-03-01T09:28:54;6.07;72.73
75010;DHT22;63564;46.840;18.336;2023-03-01T09:31:55;6.08;73.49
75010;DHT22;63564;46.840;18.336;2023-03-01T09:34:55;6.38;72.05
75010;DHT22;63564;46.840;18.336;2023-03-01T09:38:05;6.25;72.55
75010;DHT22;63564;46.840;18.336;2023-03-01T09:47:35;6.63;71.58
75010;DHT22;63564;46.840;18.336;2023-03-01T09:50:39;6.89;70.91
75010;DHT22;63564;46.840;18.336;2023-03-01T09:53:40;6.79;69.51
75010;DHT22;63564;46.840;18.336;2023-03-01T09:56:46;6.93;72.03
75010;DHT22;63564;46.840;18.336;2023-03-01T09:59:56;6.77;69.51
75010;DHT22;63564;46.840;18.336;2023-03-01T10:03:08;6.75;70.25
75010;DHT22;63564;46.840;18.336;2023-03-01T10:06:20;6.76;69.71
75010;DHT22;63564;46.840;18.336;2023-03-01T10:09:21;6.91;70.99
75010;DHT22;63564;46.840;18.336;2023-03-01T10:12:25;6.99;70.27
75010;DHT22;63564;46.840;18.336;2023-03-01T10:15:35;6.69;68.68
75010;DHT22;63564;46.840;18.336;2023-03-01T10:18:39;6.97;73.39
75010;DHT22;63564;46.840;18.336;2023-03-01T10:21:45;6.83;67.67
75010;DHT22;63564;46.840;18.336;2023-03-01T10:24:46;7.18;68.17
75010;DHT22;63564;46.840;18.336;2023-03-01T10:27:54;7.32;71.10
75010;DHT22;63564;46.840;18.336;2023-03-01T10:31:00;7.45;66.97
75010;DHT22;63564;46.840;18.336;2023-03-01T10:34:00;7.51;66.82
75010;DHT22;63564;46.840;18.336;2023-03-01T10:37:13;7.35;71.25
75010;DHT22;63564;46.840;18.336;2023-03-01T10:40:14;6.68;68.49
75010;DHT22;63564;46.840;18.336;2023-03-01T10:43:15;6.50;69.03
75010;DHT22;63564;46.840;18.336;2023-03-01T10:49:28;6.94;67.49
75010;DHT22;63564;46.840;18.336;2023-03-01T10:52:37;6.84;68.53
75010;DHT22;63564;46.840;18.336;2023-03-01T10:55:39;7.01;67.48
75010;DHT22;63564;46.840;18.336;2023-03-01T10:58:56;6.77;66.74
75010;DHT22;63564;46.840;18.336;2023-03-01T11:02:21;6.87;66.61
75010;DHT22;63564;46.840;18.336;2023-03-01T11:05:25;6.94;66.91
75010;DHT22;63564;46.840;18.336;2023-03-01T11:08:33;7.31;65.86
75010;DHT22;63564;46.840;18.336;2023-03-01T11:11:34;7.41;65.51
75010;DHT22;63564;46.840;18.336;2023-03-01T11:14:49;7.63;63.96
75010;DHT22;63564;46.840;18.336;2023-03-01T11:17:50;7.32;65.77
75010;DHT22;63564;46.840;18.336;2023-03-01T11:20:53;7.63;65.08
75010;DHT22;63564;46.840;18.336;2023-03-01T11:23:55;7.58;65.53
75010;DHT22;63564;46.840;18.336;2023-03-01T11:26:59;7.27;66.46
75010;DHT22;63564;46.840;18.336;2023-03-01T11:30:22;7.54;66.46
75010;DHT22;63564;46.840;18.336;2023-03-01T11:36:55;7.85;65.02
75010;DHT22;63564;46.840;18.336;2023-03-01T11:40:05;8.17;64.30
75010;DHT22;63564;46.840;18.336;2023-03-01T11:43:28;8.04;66.21
75010;DHT22;63564;46.840;18.336;2023-03-01T11:50:02;7.87;64.41
75010;DHT22;63564;46.840;18.336;2023-03-01T11:53:33;7.80;66.02
75010;DHT22;63564;46.840;18.336;2023-03-01T11:56:50;7.83;66.45
75010;DHT22;63564;46.840;18.336;2023-03-01T12:13:23;7.85;66.60
75010;DHT22;63564;46.840;18.336;2023-03-01T12:20:21;7.63;66.28
75010;DHT22;63564;46.840;18.336;2023-03-01T12:33:25;7.87;66.23
75010;DHT22;63564;46.840;18.336;2023-03-01T12:40:53;8.01;65.91
75010;DHT22;63564;46.840;18.336;2023-03-01T12:50:46;8.37;64.51
75010;DHT22;63564;46.840;18.336;2023-03-01T12:53:49;8.42;64.30
75010;DHT22;63564;46.840;18.336;2023-03-01T12:56:50;8.56;65.08
75010;DHT22;63564;46.840;18.336;2023-03-01T13:03:32;8.34;65.06
75010;DHT22;63564;46.840;18.336;2023-03-01T13:15:56;8.56;66.04
75010;DHT22;63564;46.840;18.336;2023-03-01T13:19:15;8.37;65.40
75010;DHT22;63564;46.840;18.336;2023-03-01T13:22:29;8.44;65.45
75010;DHT22;63564;46.840;18.336;2023-03-01T13:25:31;8.20;66.22
75010;DHT22;63564;46.840;18.336;2023-03-01T13:34:48;8.33;65.15
75010;DHT22;63564;46.840;18.336;2023-03-01T13:37:49;8.35;65.49
75010;DHT22;63564;46.840;18.336;2023-03-01T13:43:50;8.56;65.30
75010;DHT22;63564;46.840;18.336;2023-03-01T13:46:58;8.34;65.54
75010;DHT22;63564;46.840;18.336;2023-03-01T13:50:01;8.62;65.08
75010;DHT22;63564;46.840;18.336;2023-03-01T13:53:05;8.52;65.43
75010;DHT22;63564;46.840;18.336;2023-03-01T13:56:13;8.56;64.79
75010;DHT22;63564;46.840;18.336;2023-03-01T13:59:18;8.48;65.71
75010;DHT22;63564;46.840;18.336;2023-03-01T14:02:18;8.68;64.77
75010;DHT22;63564;46.840;18.336;2023-03-01T14:05:19;8.42;65.41
75010;DHT22;63564;46.840;18.336;2023-03-01T14:08:25;8.56;65.42
75010;DHT22;63564;46.840;18.336;2023-03-01T14:12:17;8.61;66.31
75010;DHT22;63564;46.840;18.336;2023-03-01T14:18:10;8.56;65.06
75010;DHT22;63564;46.840;18.336;2023-03-01T14:21:14;8.62;65.06
75010;DHT22;63564;46.840;18.336;2023-03-01T14:24:21;8.63;65.49
75010;DHT22;63564;46.840;18.336;2023-03-01T14:27:30;8.72;66.18
75010;DHT22;63564;46.840;18.336;2023-03-01T14:30:42;8.72;64.70
75010;DHT22;63564;46.840;18.336;2023-03-01T14:33:54;8.82;64.31
75010;DHT22;63564;46.840;18.336;2023-03-01T14:36:55;8.97;63.76
75010;DHT22;63564;46.840;18.336;2023-03-01T14:39:56;8.90;64.21
75010;DHT22;63564;46.840;18.336;2023-03-01T14:42:59;8.73;64.95
75010;DHT22;63564;46.840;18.336;2023-03-01T14:46:00;8.79;65.64
75010;DHT22;63564;46.840;18.336;2023-03-01T14:49:03;8.82;65.56
75010;DHT22;63564;46.840;18.336;2023-03-01T14:52:07;8.80;64.67
75010;DHT22;63564;46.840;18.336;2023-03-01T14:55:21;8.87;65.01
75010;DHT22;63564;46.840;18.336;2023-03-01T14:58:24;8.69;65.60
75010;DHT22;63564;46.840;18.336;2023-03-01T15:01:26;8.72;65.47
75010;DHT22;63564;46.840;18.336;2023-03-01T15:04:28;8.73;65.74
75010;DHT22;63564;46.840;18.336;2023-03-01T15:07:31;8.58;65.85
75010;DHT22;63564;46.840;18.336;2023-03-01T15:10:35;8.58;65.96
75010;DHT22;63564;46.840;18.336;2023-03-01T15:13:36;8.52;66.49
75010;DHT22;63564;46.840;18.336;2023-03-01T15:16:39;8.54;66.88
75010;DHT22;63564;46.840;18.336;2023-03-01T15:19:41;8.54;67.08
75010;DHT22;63564;46.840;18.336;2023-03-01T15:22:44;8.48;67.06
75010;DHT22;63564;46.840;18.336;2023-03-01T15:25:50;8.38;67.18
75010;DHT22;63564;46.840;18.336;2023-03-01T15:28:58;8.48;67.70
75010;DHT22;63564;46.840;18.336;2023-03-01T15:32:05;8.42;68.34
75010;DHT22;63564;46.840;18.336;2023-03-01T15:35:41;8.51;68.25
75010;DHT22;63564;46.840;18.336;2023-03-01T15:38:55;8.44;68.38
75010;DHT22;63564;46.840;18.336;2023-03-01T15:41:57;8.40;68.53
75010;DHT22;63564;46.840;18.336;2023-03-01T15:48:18;8.34;68.77
75010;DHT22;63564;46.840;18.336;2023-03-01T15:51:43;8.24;69.14
75010;DHT22;63564;46.840;18.336;2023-03-01T15:54:43;8.38;69.16
75010;DHT22;63564;46.840;18.336;2023-03-01T15:57:44;8.45;68.96
75010;DHT22;63564;46.840;18.336;2023-03-01T16:00:46;8.41;69.51
75010;DHT22;63564;46.840;18.336;2023-03-01T16:03:48;8.54;68.94
75010;DHT22;63564;46.840;18.336;2023-03-01T16:06:53;8.38;69.69
75010;DHT22;63564;46.840;18.336;2023-03-01T16:09:57;8.37;69.27
75010;DHT22;63564;46.840;18.336;2023-03-01T16:12:58;8.25;69.16
75010;DHT22;63564;46.840;18.336;2023-03-01T16:15:58;8.20;70.57
75010;DHT22;63564;46.840;18.336;2023-03-01T16:18:59;8.20;70.70
75010;DHT22;63564;46.840;18.336;2023-03-01T16:22:00;8.08;70.06
75010;DHT22;63564;46.840;18.336;2023-03-01T16:25:00;8.14;70.30
75010;DHT22;63564;46.840;18.336;2023-03-01T16:28:03;8.08;70.44
75010;DHT22;63564;46.840;18.336;2023-03-01T16:31:09;7.98;70.58
75010;DHT22;63564;46.840;18.336;2023-03-01T16:34:10;7.85;71.38
75010;DHT22;63564;46.840;18.336;2023-03-01T16:37:10;7.96;71.25
75010;DHT22;63564;46.840;18.336;2023-03-01T16:40:22;7.87;71.60
75010;DHT22;63564;46.840;18.336;2023-03-01T16:43:24;7.75;73.09
75010;DHT22;63564;46.840;18.336;2023-03-01T16:46:27;7.69;72.93
75010;DHT22;63564;46.840;18.336;2023-03-01T16:49:28;7.66;72.08
75010;DHT22;63564;46.840;18.336;2023-03-01T16:52:28;7.69;72.82
75010;DHT22;63564;46.840;18.336;2023-03-01T16:55:29;7.66;72.46
75010;DHT22;63564;46.840;18.336;2023-03-01T16:58:31;7.54;71.98
75010;DHT22;63564;46.840;18.336;2023-03-01T17:01:31;7.63;71.85
75010;DHT22;63564;46.840;18.336;2023-03-01T17:04:37;7.61;71.53
75010;DHT22;63564;46.840;18.336;2023-03-01T17:07:38;7.52;72.38
75010;DHT22;63564;46.840;18.336;2023-03-01T17:10:39;7.52;72.18
75010;DHT22;63564;46.840;18.336;2023-03-01T17:13:42;7.48;72.65
75010;DHT22;63564;46.840;18.336;2023-03-01T17:16:43;7.25;73.29
75010;DHT22;63564;46.840;18.336;2023-03-01T17:19:45;7.25;73.21
75010;DHT22;63564;46.840;18.336;2023-03-01T17:22:45;7.21;73.64
75010;DHT22;63564;46.840;18.336;2023-03-01T17:25:46;7.14;73.16
75010;DHT22;63564;46.840;18.336;2023-03-01T17:28:47;7.01;73.97
75010;DHT22;63564;46.840;18.336;2023-03-01T17:31:51;6.94;73.80
75010;DHT22;63564;46.840;18.336;2023-03-01T17:34:53;6.86;73.91
75010;DHT22;63564;46.840;18.336;2023-03-01T17:37:54;6.65;75.03
75010;DHT22;63564;46.840;18.336;2023-03-01T17:40:58;6.61;76.19
75010;DHT22;63564;46.840;18.336;2023-03-01T17:43:59;6.50;75.28
75010;DHT22;63564;46.840;18.336;2023-03-01T17:47:01;6.61;74.85
75010;DHT22;63564;46.840;18.336;2023-03-01T17:50:02;6.65;74.97
75010;DHT22;63564;46.840;18.336;2023-03-01T17:53:05;6.53;75.84
75010;DHT22;63564;46.840;18.336;2023-03-01T17:56:09;6.41;75.81
75010;DHT22;63564;46.840;18.336;2023-03-01T17:59:10;6.35;75.84
75010;DHT22;63564;46.840;18.336;2023-03-01T18:02:12;6.24;76.86
75010;DHT22;63564;46.840;18.336;2023-03-01T18:05:13;6.28;75.98
75010;DHT22;63564;46.840;18.336;2023-03-01T18:08:13;6.24;75.74
75010;DHT22;63564;46.840;18.336;2023-03-01T18:11:14;5.97;76.96
75010;DHT22;63564;46.840;18.336;2023-03-01T18:14:15;5.86;77.49
75010;DHT22;63564;46.840;18.336;2023-03-01T18:17:15;5.80;77.43
75010;DHT22;63564;46.840;18.336;2023-03-01T18:20:16;5.71;78.11
75010;DHT22;63564;46.840;18.336;2023-03-01T18:23:19;5.69;77.70
75010;DHT22;63564;46.840;18.336;2023-03-01T18:26:21;5.65;77.53
75010;DHT22;63564;46.840;18.336;2023-03-01T18:29:22;5.53;79.48
75010;DHT22;63564;46.840;18.336;2023-03-01T18:32:23;5.45;78.18
75010;DHT22;63564;46.840;18.336;2023-03-01T18:35:25;5.38;78.29
75010;DHT22;63564;46.840;18.336;2023-03-01T18:38:26;5.28;78.48
75010;DHT22;63564;46.840;18.336;2023-03-01T18:41:28;5.18;78.77
75010;DHT22;63564;46.840;18.336;2023-03-01T18:44:29;5.10;79.15
75010;DHT22;63564;46.840;18.336;2023-03-01T18:47:30;5.04;79.39
75010;DHT22;63564;46.840;18.336;2023-03-01T18:50:31;4.90;79.91
75010;DHT22;63564;46.840;18.336;2023-03-01T18:53:32;4.90;80.09
75010;DHT22;63564;46.840;18.336;2023-03-01T18:56:33;4.97;79.31
75010;DHT22;63564;46.840;18.336;2023-03-01T18:59:34;4.85;79.49
75010;DHT22;63564;46.840;18.336;2023-03-01T19:02:35;4.67;80.45
75010;DHT22;63564;46.840;18.336;2023-03-01T19:05:40;4.74;80.44
75010;DHT22;63564;46.840;18.336;2023-03-01T19:08:40;4.73;80.50
75010;DHT22;63564;46.840;18.336;2023-03-01T19:11:43;4.64;81.08
75010;DHT22;63564;46.840;18.336;2023-03-01T19:14:44;4.69;80.98
75010;DHT22;63564;46.840;18.336;2023-03-01T19:17:44;4.74;80.68
75010;DHT22;63564;46.840;18.336;2023-03-01T19:20:45;4.64;81.77
75010;DHT22;63564;46.840;18.336;2023-03-01T19:23:48;4.67;81.31
75010;DHT22;63564;46.840;18.336;2023-03-01T19:26:49;4.69;81.03
75010;DHT22;63564;46.840;18.336;2023-03-01T19:29:49;4.64;81.22
75010;DHT22;63564;46.840;18.336;2023-03-01T19:32:50;4.66;80.86
75010;DHT22;63564;46.840;18.336;2023-03-01T19:35:52;4.73;81.05
75010;DHT22;63564;46.840;18.336;2023-03-01T19:38:54;4.64;80.88
75010;DHT22;63564;46.840;18.336;2023-03-01T19:41:55;4.60;80.83
75010;DHT22;63564;46.840;18.336;2023-03-01T19:44:56;4.57;80.89
75010;DHT22;63564;46.840;18.336;2023-03-01T19:47:57;4.53;80.90
75010;DHT22;63564;46.840;18.336;2023-03-01T19:50:58;4.45;81.99
75010;DHT22;63564;46.840;18.336;2023-03-01T19:53:58;4.36;82.07
75010;DHT22;63564;46.840;18.336;2023-03-01T19:56:59;4.26;82.90
75010;DHT22;63564;46.840;18.336;2023-03-01T20:00:00;4.26;82.22
75010;DHT22;63564;46.840;18.336;2023-03-01T20:03:02;4.21;82.64
75010;DHT22;63564;46.840;18.336;2023-03-01T20:06:12;4.18;82.96
75010;DHT22;63564;46.840;18.336;2023-03-01T20:21:59;4.29;81.53
75010;DHT22;63564;46.840;18.336;2023-03-01T20:25:00;4.28;81.76
75010;DHT22;63564;46.840;18.336;2023-03-01T20:28:01;4.18;82.23
75010;DHT22;63564;46.840;18.336;2023-03-01T20:31:07;4.15;82.23
75010;DHT22;63564;46.840;18.336;2023-03-01T20:34:08;3.95;82.66
75010;DHT22;63564;46.840;18.336;2023-03-01T20:37:09;3.97;82.39
75010;DHT22;63564;46.840;18.336;2023-03-01T20:40:10;3.88;82.85
75010;DHT22;63564;46.840;18.336;2023-03-01T20:43:12;3.86;82.88
75010;DHT22;63564;46.840;18.336;2023-03-01T20:46:12;3.70;83.14
75010;DHT22;63564;46.840;18.336;2023-03-01T20:49:14;3.69;83.76
75010;DHT22;63564;46.840;18.336;2023-03-01T20:52:15;3.55;83.94
75010;DHT22;63564;46.840;18.336;2023-03-01T20:55:18;3.49;84.31
75010;DHT22;63564;46.840;18.336;2023-03-01T20:58:19;3.46;83.86
75010;DHT22;63564;46.840;18.336;2023-03-01T21:01:19;3.52;84.13
75010;DHT22;63564;46.840;18.336;2023-03-01T21:04:21;3.49;83.94